createdAt,value
2022-10-01T00:01:40.674Z,74.94
2022-10-01T00:03:44.174Z,75.38
2022-10-01T00:05:47.520Z,75.05
2022-10-01T00:07:50.285Z,74.88
2022-10-01T00:09:53.008Z,74.55
2022-10-01T00:11:56.595Z,73.88
2022-10-01T00:13:59.300Z,74.69
2022-10-01T00:16:05.817Z,74.45
2022-10-01T00:18:10.282Z,74.01
2022-10-01T00:20:14.631Z,74.29
2022-10-01T00:22:18.951Z,74.02
2022-10-01T00:24:21.715Z,74.45
2022-10-01T00:26:28.083Z,75.18
2022-10-01T00:28:30.865Z,74.91
2022-10-01T00:30:38.402Z,74.63
2022-10-01T00:32:44.389Z,75.30
2022-10-01T00:34:47.125Z,74.88
2022-10-01T00:36:50.292Z,73.82
2022-10-01T00:38:53.127Z,75.06
2022-10-01T00:40:56.009Z,74.48
2022-10-01T00:42:59.061Z,74.40
2022-10-01T00:45:02.239Z,73.83
2022-10-01T00:47:20.377Z,73.80
2022-10-01T00:49:27.185Z,73.89
2022-10-01T00:51:34.036Z,73.69
2022-10-01T00:53:38.247Z,73.16
2022-10-01T00:55:42.842Z,74.01
2022-10-01T00:57:46.175Z,74.34
2022-10-01T00:59:50.538Z,74.20
2022-10-01T01:01:53.448Z,74.45
2022-10-01T01:03:57.742Z,74.67
2022-10-01T01:06:02.028Z,74.00
2022-10-01T01:08:05.226Z,74.93
2022-10-01T01:10:09.215Z,73.90
2022-10-01T01:12:24.642Z,74.29
2022-10-01T01:14:35.038Z,74.79
2022-10-01T01:16:43.137Z,74.43
2022-10-01T01:18:54.400Z,74.91
2022-10-01T01:21:26.241Z,74.52
2022-10-01T01:23:44.665Z,74.37
2022-10-01T01:25:50.115Z,74.22
2022-10-01T01:28:08.300Z,74.73
2022-10-01T01:30:14.985Z,74.92
2022-10-01T01:32:23.986Z,74.37
2022-10-01T01:34:32.402Z,74.89
2022-10-01T01:36:38.142Z,74.75
2022-10-01T01:38:45.100Z,74.22
2022-10-01T01:40:51.533Z,74.08
2022-10-01T01:42:56.566Z,73.63
2022-10-01T01:45:03.856Z,74.10
2022-10-01T01:47:10.415Z,74.12
2022-10-01T01:49:17.478Z,73.73
2022-10-01T01:51:26.874Z,73.95
2022-10-01T01:53:32.138Z,73.47
2022-10-01T01:55:37.529Z,73.75
2022-10-01T01:57:42.779Z,73.44
2022-10-01T01:59:47.079Z,73.48
2022-10-01T02:01:51.508Z,73.74
2022-10-01T02:03:54.292Z,73.38
2022-10-01T02:06:05.133Z,74.39
2022-10-01T02:08:27.678Z,74.20
2022-10-01T02:10:46.230Z,73.79
2022-10-01T02:13:03.841Z,73.65
2022-10-01T02:15:11.666Z,74.08
2022-10-01T02:17:23.580Z,74.54
2022-10-01T02:19:36.951Z,73.33
2022-10-01T02:21:42.896Z,73.29
2022-10-01T02:23:52.128Z,74.22
2022-10-01T02:25:59.364Z,73.64
2022-10-01T02:28:06.871Z,74.48
2022-10-01T02:30:11.965Z,73.79
2022-10-01T02:32:19.148Z,74.25
2022-10-01T02:34:25.655Z,74.28
2022-10-01T02:36:30.552Z,73.41
2022-10-01T02:38:34.503Z,73.72
2022-10-01T02:40:41.838Z,74.45
2022-10-01T02:42:49.920Z,73.81
2022-10-01T02:44:54.912Z,74.01
2022-10-01T02:47:03.892Z,73.43
2022-10-01T02:49:08.043Z,74.44
2022-10-01T02:51:26.058Z,73.39
2022-10-01T02:53:36.187Z,73.72
2022-10-01T02:55:41.215Z,74.53
2022-10-01T02:57:43.211Z,73.44
2022-10-01T02:59:46.014Z,73.94
2022-10-01T03:01:48.860Z,73.85
2022-10-01T03:03:53.827Z,73.46
2022-10-01T03:05:57.808Z,74.63
2022-10-01T03:08:00.558Z,74.11
2022-10-01T03:10:03.832Z,74.17
2022-10-01T03:12:07.469Z,73.61
2022-10-01T03:14:11.230Z,74.05
2022-10-01T03:16:14.052Z,73.23
2022-10-01T03:18:16.848Z,73.54
2022-10-01T03:20:19.753Z,73.74
2022-10-01T03:22:24.526Z,73.62
2022-10-01T03:24:27.230Z,73.99
2022-10-01T03:26:30.020Z,74.10
2022-10-01T03:28:32.777Z,74.11
2022-10-01T03:30:35.505Z,73.28
2022-10-01T03:32:38.282Z,73.62
2022-10-01T03:34:41.345Z,73.64
2022-10-01T03:36:44.092Z,73.48
2022-10-01T03:38:48.187Z,74.05
2022-10-01T03:40:50.913Z,73.45
2022-10-01T03:42:53.644Z,73.65
2022-10-01T03:44:56.374Z,72.84
2022-10-01T03:46:59.165Z,73.37
2022-10-01T03:49:02.139Z,72.72
2022-10-01T03:51:05.660Z,73.71
2022-10-01T03:53:08.391Z,72.87
2022-10-01T03:55:12.566Z,73.51
2022-10-01T03:57:15.354Z,73.72
2022-10-01T03:59:18.032Z,73.68
2022-10-01T04:01:20.975Z,73.42
2022-10-01T04:03:23.796Z,73.54
2022-10-01T04:05:26.604Z,72.72
2022-10-01T04:07:29.843Z,73.37
2022-10-01T04:09:32.584Z,73.08
2022-10-01T04:11:37.042Z,72.65
2022-10-01T04:13:40.028Z,72.86
2022-10-01T04:15:42.762Z,73.03
2022-10-01T04:17:46.188Z,73.36
2022-10-01T04:19:48.992Z,73.98
2022-10-01T04:21:51.749Z,74.09
2022-10-01T04:23:54.528Z,74.46
2022-10-01T04:25:59.936Z,74.77
2022-10-01T04:28:06.556Z,74.38
2022-10-01T04:30:10.919Z,75.26
2022-10-01T04:32:13.631Z,74.63
2022-10-01T04:34:16.362Z,76.03
2022-10-01T04:36:19.592Z,75.66
2022-10-01T04:38:22.318Z,75.59
2022-10-01T04:40:25.149Z,76.18
2022-10-01T04:42:27.886Z,75.94
2022-10-01T04:44:32.029Z,76.02
2022-10-01T04:46:34.837Z,75.62
2022-10-01T04:48:37.650Z,76.82
2022-10-01T04:50:40.410Z,77.25
2022-10-01T04:52:43.541Z,77.25
2022-10-01T04:54:46.378Z,77.33
2022-10-01T04:56:49.165Z,76.88
2022-10-01T04:58:51.908Z,76.82
2022-10-01T05:01:01.031Z,77.49
2022-10-01T05:03:04.809Z,77.90
2022-10-01T05:05:09.013Z,78.25
2022-10-01T05:07:11.766Z,77.21
2022-10-01T05:09:14.549Z,77.46
2022-10-01T05:11:17.285Z,77.86
2022-10-01T05:13:20.011Z,77.89
2022-10-01T05:15:22.751Z,78.27
2022-10-01T05:17:26.872Z,78.52
2022-10-01T05:19:30.548Z,78.88
2022-10-01T05:21:33.589Z,78.96
2022-10-01T05:23:36.461Z,78.38
2022-10-01T05:25:39.239Z,79.00
2022-10-01T05:27:42.089Z,78.71
2022-10-01T05:29:45.788Z,79.22
2022-10-01T05:31:49.299Z,79.11
2022-10-01T05:33:54.732Z,78.84
2022-10-01T05:35:57.494Z,79.29
2022-10-01T05:38:02.591Z,79.81
2022-10-01T05:40:06.104Z,79.85
2022-10-01T05:42:08.802Z,79.48
2022-10-01T05:44:11.579Z,79.79
2022-10-01T05:46:14.344Z,78.72
2022-10-01T05:48:17.131Z,78.86
2022-10-01T05:50:21.180Z,79.68
2022-10-01T05:52:23.885Z,78.81
2022-10-01T05:54:26.695Z,79.17
2022-10-01T05:56:29.412Z,79.48
2022-10-01T05:58:32.144Z,79.87
2022-10-01T06:00:36.214Z,79.69
2022-10-01T06:02:39.039Z,79.43
2022-10-01T06:04:42.026Z,78.99
2022-10-01T06:06:46.629Z,79.21
2022-10-01T06:08:49.444Z,79.64
2022-10-01T06:10:52.132Z,80.05
2022-10-01T06:13:00.282Z,78.85
2022-10-01T06:15:03.068Z,78.47
2022-10-01T06:17:05.830Z,79.74
2022-10-01T06:19:08.556Z,79.67
2022-10-01T06:21:11.373Z,79.50
2022-10-01T06:23:15.971Z,78.50
2022-10-01T06:25:19.069Z,78.70
2022-10-01T06:27:21.780Z,79.03
2022-10-01T06:29:24.548Z,79.48
2022-10-01T06:31:27.526Z,79.39
2022-10-01T06:33:30.717Z,79.62
2022-10-01T06:35:34.642Z,79.90
2022-10-01T06:37:38.123Z,79.90
2022-10-01T06:39:42.226Z,79.99
2022-10-01T06:41:45.027Z,79.36
2022-10-01T06:43:51.005Z,79.37
2022-10-01T06:45:54.132Z,80.24
2022-10-01T06:47:58.061Z,79.38
2022-10-01T06:50:00.779Z,80.10
2022-10-01T06:52:21.106Z,80.11
2022-10-01T06:54:26.421Z,79.51
2022-10-01T06:56:31.144Z,80.30
2022-10-01T06:58:34.616Z,79.56
2022-10-01T07:00:38.934Z,80.14
2022-10-01T07:02:42.118Z,79.82
2022-10-01T07:04:44.919Z,80.43
2022-10-01T07:06:47.960Z,79.57
2022-10-01T07:08:51.225Z,79.46
2022-10-01T07:10:54.683Z,79.61
2022-10-01T07:13:07.588Z,80.36
2022-10-01T07:15:10.752Z,79.44
2022-10-01T07:17:13.496Z,79.37
2022-10-01T07:19:16.289Z,80.24
2022-10-01T07:21:19.121Z,79.51
2022-10-01T07:23:24.282Z,79.58
2022-10-01T07:25:28.347Z,79.91
2022-10-01T07:27:31.114Z,79.95
2022-10-01T07:29:35.486Z,80.02
2022-10-01T07:31:38.687Z,80.03
2022-10-01T07:33:42.343Z,78.95
2022-10-01T07:35:47.690Z,80.37
2022-10-01T07:37:51.365Z,79.95
2022-10-01T07:39:54.215Z,79.76
2022-10-01T07:41:56.975Z,80.46
2022-10-01T07:43:59.778Z,79.71
2022-10-01T07:46:07.045Z,79.96
2022-10-01T07:48:09.853Z,79.89
2022-10-01T07:50:12.621Z,80.76
2022-10-01T07:52:15.338Z,81.09
2022-10-01T07:54:18.899Z,80.42
2022-10-01T07:56:21.664Z,81.04
2022-10-01T07:58:24.473Z,80.60
2022-10-01T08:00:28.682Z,81.04
2022-10-01T08:02:32.912Z,81.63
2022-10-01T08:04:53.174Z,80.89
2022-10-01T08:06:57.077Z,80.99
2022-10-01T08:08:59.897Z,82.16
2022-10-01T08:11:03.456Z,81.88
2022-10-01T08:13:08.306Z,81.91
2022-10-01T08:15:11.573Z,82.23
2022-10-01T08:17:14.395Z,81.75
2022-10-01T08:19:18.481Z,81.90
2022-10-01T08:21:21.227Z,82.12
2022-10-01T08:23:23.988Z,82.17
2022-10-01T08:25:26.897Z,82.30
2022-10-01T08:27:29.872Z,82.08
2022-10-01T08:29:34.283Z,82.84
2022-10-01T08:31:37.648Z,82.19
2022-10-01T08:33:41.207Z,81.99
2022-10-01T08:35:45.465Z,82.35
2022-10-01T08:37:48.263Z,81.75
2022-10-01T08:39:51.093Z,81.52
2022-10-01T08:42:02.047Z,81.10
2022-10-01T08:44:06.950Z,82.26
2022-10-01T08:46:14.359Z,82.21
2022-10-01T08:48:25.718Z,81.58
2022-10-01T08:50:37.396Z,82.16
2022-10-01T08:52:50.454Z,82.37
2022-10-01T08:54:58.909Z,81.77
2022-10-01T08:57:04.139Z,81.56
2022-10-01T08:59:16.306Z,81.71
2022-10-01T09:01:21.950Z,81.56
2022-10-01T09:03:26.226Z,82.52
2022-10-01T09:05:41.695Z,82.82
2022-10-01T09:08:02.438Z,82.30
2022-10-01T09:10:18.248Z,81.95
2022-10-01T09:12:32.518Z,81.84
2022-10-01T09:14:51.495Z,82.33
2022-10-01T09:17:05.121Z,81.73
2022-10-01T09:19:21.076Z,81.39
2022-10-01T09:21:28.957Z,82.42
2022-10-01T09:23:40.887Z,82.43
2022-10-01T09:25:45.832Z,82.17
2022-10-01T09:27:49.124Z,82.45
2022-10-01T09:29:56.295Z,81.91
2022-10-01T09:32:03.570Z,82.31
2022-10-01T09:34:13.357Z,81.81
2022-10-01T09:36:23.838Z,82.45
2022-10-01T09:38:33.150Z,82.94
2022-10-01T09:40:51.056Z,81.54
2022-10-01T09:42:53.984Z,82.53
2022-10-01T09:44:57.278Z,82.46
2022-10-01T09:47:00.277Z,81.95
2022-10-01T09:49:10.701Z,81.80
2022-10-01T09:51:19.211Z,81.64
2022-10-01T09:53:27.996Z,82.47
2022-10-01T09:55:37.209Z,81.77
2022-10-01T09:57:45.674Z,82.34
2022-10-01T09:59:53.701Z,82.28
2022-10-01T10:01:59.839Z,81.91
2022-10-01T10:04:02.702Z,81.55
2022-10-01T10:06:06.993Z,81.77
2022-10-01T10:08:15.295Z,82.22
2022-10-01T10:10:25.274Z,81.20
2022-10-01T10:12:30.715Z,81.46
2022-10-01T10:14:40.720Z,82.12
2022-10-01T10:16:47.236Z,81.59
2022-10-01T10:18:52.267Z,82.00
2022-10-01T10:20:55.827Z,81.79
2022-10-01T10:23:09.634Z,82.08
2022-10-01T10:25:18.122Z,81.53
2022-10-01T10:27:26.697Z,81.99
2022-10-01T10:29:31.451Z,82.00
2022-10-01T10:31:40.820Z,81.43
2022-10-01T10:33:54.367Z,82.05
2022-10-01T10:35:59.498Z,81.21
2022-10-01T10:38:02.444Z,81.35
2022-10-01T10:40:08.906Z,81.82
2022-10-01T10:42:15.644Z,81.24
2022-10-01T10:44:21.272Z,81.72
2022-10-01T10:46:29.589Z,81.78
2022-10-01T10:48:39.111Z,81.74
2022-10-01T10:50:45.334Z,81.61
2022-10-01T10:52:48.053Z,81.91
2022-10-01T10:54:52.218Z,81.66
2022-10-01T10:57:02.260Z,81.12
2022-10-01T10:59:09.122Z,81.60
2022-10-01T11:01:16.289Z,81.37
2022-10-01T11:03:23.134Z,81.03
2022-10-01T11:05:31.936Z,81.01
2022-10-01T11:07:35.134Z,81.61
2022-10-01T11:09:53.952Z,81.27
2022-10-01T11:12:06.069Z,81.71
2022-10-01T11:14:23.951Z,81.40
2022-10-01T11:16:48.261Z,81.46
2022-10-01T11:19:05.533Z,81.37
2022-10-01T11:21:36.833Z,81.34
2022-10-01T11:23:56.178Z,81.70
2022-10-01T11:26:11.653Z,81.42
2022-10-01T11:28:28.251Z,81.89
2022-10-01T11:30:39.482Z,82.20
2022-10-01T11:32:46.402Z,81.75
2022-10-01T11:35:06.563Z,81.66
2022-10-01T11:37:26.310Z,81.54
2022-10-01T11:39:32.363Z,81.84
2022-10-01T11:41:39.717Z,81.24
2022-10-01T11:43:45.468Z,81.80
2022-10-01T11:45:52.254Z,81.66
2022-10-01T11:47:58.396Z,81.32
2022-10-01T11:50:04.039Z,81.54
2022-10-01T11:52:17.577Z,81.11
2022-10-01T11:54:24.858Z,81.46
2022-10-01T11:56:50.353Z,81.54
2022-10-01T11:58:57.285Z,81.40
2022-10-01T12:01:06.329Z,81.27
2022-10-01T12:03:17.657Z,81.47
2022-10-01T12:05:23.797Z,81.77
2022-10-01T12:07:33.816Z,81.56
2022-10-01T12:09:44.690Z,81.64
2022-10-01T12:11:54.502Z,81.19
2022-10-01T12:14:03.862Z,81.26
2022-10-01T12:16:15.577Z,81.69
2022-10-01T12:18:25.542Z,81.46
2022-10-01T12:20:32.759Z,81.11
2022-10-01T12:22:39.816Z,81.64
2022-10-01T12:24:44.647Z,81.34
2022-10-01T12:26:58.829Z,81.59
2022-10-01T12:29:11.562Z,81.38
2022-10-01T12:31:19.877Z,81.38
2022-10-01T12:33:53.060Z,81.46
2022-10-01T12:36:07.899Z,81.39
2022-10-01T12:38:27.577Z,82.00
2022-10-01T12:40:38.203Z,82.20
2022-10-01T12:43:00.826Z,81.62
2022-10-01T12:45:20.278Z,81.78
2022-10-01T12:47:38.250Z,81.26
2022-10-01T12:49:49.269Z,80.99
2022-10-01T12:52:01.848Z,81.62
2022-10-01T12:54:21.013Z,81.38
2022-10-01T12:56:30.827Z,81.76
2022-10-01T12:59:06.282Z,81.58
2022-10-01T13:01:21.194Z,81.30
2022-10-01T13:03:37.347Z,80.91
2022-10-01T13:05:51.223Z,80.66
2022-10-01T13:08:04.692Z,80.87
2022-10-01T13:10:29.572Z,81.06
2022-10-01T13:12:54.883Z,80.87
2022-10-01T13:14:59.995Z,80.68
2022-10-01T13:17:08.053Z,80.68
2022-10-01T13:19:17.093Z,80.38
2022-10-01T13:21:29.215Z,80.27
2022-10-01T13:23:40.238Z,80.84
2022-10-01T13:25:55.974Z,80.71
2022-10-01T13:28:04.606Z,80.58
2022-10-01T13:30:17.881Z,80.85
2022-10-01T13:32:30.743Z,80.67
2022-10-01T13:34:39.206Z,80.57
2022-10-01T13:36:41.991Z,81.07
2022-10-01T13:38:47.876Z,81.23
2022-10-01T13:41:00.029Z,81.33
2022-10-01T13:43:09.398Z,81.55
2022-10-01T13:45:26.475Z,81.62
2022-10-01T13:47:29.530Z,81.96
2022-10-01T13:49:34.089Z,81.78
2022-10-01T13:51:38.296Z,81.17
2022-10-01T13:53:50.042Z,81.51
2022-10-01T13:55:54.475Z,81.86
2022-10-01T13:58:05.702Z,81.25
2022-10-01T14:00:23.423Z,81.35
2022-10-01T14:02:32.704Z,81.52
2022-10-01T14:04:40.049Z,81.15
2022-10-01T14:06:49.721Z,81.11
2022-10-01T14:09:00.355Z,79.96
2022-10-01T14:11:27.062Z,80.09
2022-10-01T14:13:52.252Z,79.41
2022-10-01T14:16:02.745Z,79.13
2022-10-01T14:18:10.548Z,79.08
2022-10-01T14:20:19.174Z,79.45
2022-10-01T14:22:36.513Z,78.13
2022-10-01T14:24:59.625Z,78.11
2022-10-01T14:27:13.324Z,77.99
2022-10-01T14:29:30.303Z,77.79
2022-10-01T14:31:50.888Z,78.22
2022-10-01T14:34:10.225Z,78.11
2022-10-01T14:36:19.395Z,77.61
2022-10-01T14:38:23.442Z,77.47
2022-10-01T14:40:26.914Z,77.82
2022-10-01T14:42:29.673Z,77.82
2022-10-01T14:44:39.551Z,78.11
2022-10-01T14:46:42.330Z,78.14
2022-10-01T14:48:45.642Z,78.03
2022-10-01T14:50:51.960Z,77.28
2022-10-01T14:52:55.882Z,77.69
2022-10-01T14:55:07.831Z,78.46
2022-10-01T14:57:13.062Z,77.63
2022-10-01T14:59:22.919Z,77.51
2022-10-01T15:01:27.051Z,77.60
2022-10-01T15:03:37.661Z,77.58
2022-10-01T15:05:40.613Z,77.41
2022-10-01T15:07:46.922Z,77.84
2022-10-01T15:09:49.902Z,76.94
2022-10-01T15:11:53.827Z,77.57
2022-10-01T15:14:02.397Z,77.61
2022-10-01T15:16:06.258Z,77.02
2022-10-01T15:18:15.184Z,77.52
2022-10-01T15:20:18.471Z,77.84
2022-10-01T15:22:25.061Z,78.12
2022-10-01T15:24:37.680Z,77.50
2022-10-01T15:26:40.557Z,77.85
2022-10-01T15:28:44.394Z,78.19
2022-10-01T15:30:47.377Z,77.63
2022-10-01T15:32:51.927Z,78.32
2022-10-01T15:34:57.692Z,78.08
2022-10-01T15:37:00.884Z,78.18
2022-10-01T15:39:04.956Z,79.10
2022-10-01T15:41:30.424Z,78.86
2022-10-01T15:43:39.027Z,79.04
2022-10-01T15:45:42.347Z,79.53
2022-10-01T15:47:51.617Z,79.86
2022-10-01T15:50:19.046Z,79.75
2022-10-01T15:52:36.777Z,80.20
2022-10-01T15:54:41.484Z,80.01
2022-10-01T15:56:49.070Z,80.53
2022-10-01T15:58:54.464Z,80.80
2022-10-01T16:01:04.531Z,80.37
2022-10-01T16:03:07.458Z,80.92
2022-10-01T16:05:17.645Z,81.44
2022-10-01T16:07:23.023Z,82.47
2022-10-01T16:09:29.650Z,82.12
2022-10-01T16:11:32.810Z,82.44
2022-10-01T16:13:39.175Z,82.23
2022-10-01T16:15:42.088Z,83.22
2022-10-01T16:17:54.923Z,83.20
2022-10-01T16:19:59.661Z,83.21
2022-10-01T16:22:21.759Z,83.13
2022-10-01T16:24:28.510Z,83.44
2022-10-01T16:26:39.618Z,83.96
2022-10-01T16:28:43.038Z,83.64
2022-10-01T16:30:52.046Z,83.19
2022-10-01T16:32:59.824Z,83.85
2022-10-01T16:35:20.035Z,83.13
2022-10-01T16:37:24.103Z,83.33
2022-10-01T16:39:26.868Z,84.19
2022-10-01T16:41:33.645Z,83.88
2022-10-01T16:43:38.424Z,83.48
2022-10-01T16:45:42.740Z,83.86
2022-10-01T16:47:46.248Z,82.97
2022-10-01T16:49:49.906Z,83.64
2022-10-01T16:51:53.902Z,83.36
2022-10-01T16:53:59.036Z,83.66
2022-10-01T16:56:02.321Z,84.10
2022-10-01T16:58:06.804Z,83.57
2022-10-01T17:00:11.710Z,83.58
2022-10-01T17:02:15.636Z,83.99
2022-10-01T17:04:18.980Z,84.20
2022-10-01T17:06:21.692Z,84.36
2022-10-01T17:08:24.491Z,84.32
2022-10-01T17:10:30.895Z,84.34
2022-10-01T17:12:33.709Z,83.97
2022-10-01T17:14:36.536Z,84.02
2022-10-01T17:16:39.780Z,83.63
2022-10-01T17:18:43.842Z,84.36
2022-10-01T17:20:46.957Z,84.10
2022-10-01T17:22:50.216Z,83.62
2022-10-01T17:24:52.938Z,84.05
2022-10-01T17:26:57.243Z,83.96
2022-10-01T17:29:00.015Z,83.64
2022-10-01T17:31:06.891Z,84.27
2022-10-01T17:33:11.816Z,83.67
2022-10-01T17:35:16.544Z,83.86
2022-10-01T17:37:19.380Z,84.00
2022-10-01T17:39:22.183Z,83.39
2022-10-01T17:41:25.065Z,83.32
2022-10-01T17:43:29.293Z,83.32
2022-10-01T17:45:32.138Z,83.78
2022-10-01T17:47:35.145Z,83.06
2022-10-01T17:49:37.897Z,82.86
2022-10-01T17:51:40.712Z,82.71
2022-10-01T17:53:43.941Z,82.75
2022-10-01T17:55:46.817Z,82.74
2022-10-01T17:57:49.587Z,82.92
2022-10-01T17:59:53.848Z,82.58
2022-10-01T18:01:57.183Z,83.50
2022-10-01T18:04:00.686Z,82.86
2022-10-01T18:06:04.533Z,83.07
2022-10-01T18:08:07.396Z,83.27
2022-10-01T18:10:12.244Z,83.26
2022-10-01T18:12:15.725Z,82.98
2022-10-01T18:14:18.654Z,83.54
2022-10-01T18:16:23.086Z,83.09
2022-10-01T18:19:51.373Z,82.96
2022-10-01T18:20:48.760Z,83.55
2022-10-01T18:22:51.909Z,83.04
2022-10-01T18:24:54.702Z,82.59
2022-10-01T18:26:57.632Z,82.38
2022-10-01T18:29:00.625Z,83.17
2022-10-01T18:31:20.039Z,83.03
2022-10-01T18:33:24.242Z,83.34
2022-10-01T18:35:31.403Z,83.19
2022-10-01T18:37:39.997Z,82.84
2022-10-01T18:39:46.462Z,83.15
2022-10-01T18:41:50.472Z,83.21
2022-10-01T18:43:55.368Z,83.08
2022-10-01T18:46:13.950Z,83.30
2022-10-01T18:48:36.457Z,83.12
2022-10-01T18:50:44.255Z,83.60
2022-10-01T18:52:58.773Z,82.98
2022-10-01T18:55:21.516Z,83.27
2022-10-01T18:57:45.893Z,83.55
2022-10-01T19:00:06.493Z,83.96
2022-10-01T19:02:34.478Z,83.85
2022-10-01T19:04:55.411Z,83.76
2022-10-01T19:07:09.481Z,83.55
2022-10-01T19:09:27.799Z,83.26
2022-10-01T19:11:43.921Z,83.05
2022-10-01T19:13:54.890Z,83.38
2022-10-01T19:16:06.587Z,83.66
2022-10-01T19:18:29.959Z,83.30
2022-10-01T19:20:49.897Z,83.69
2022-10-01T19:23:06.715Z,83.40
2022-10-01T19:25:20.072Z,83.90
2022-10-01T19:27:41.628Z,83.70
2022-10-01T19:29:54.961Z,83.86
2022-10-01T19:32:01.205Z,83.95
2022-10-01T19:34:10.032Z,83.86
2022-10-01T19:36:25.251Z,83.12
2022-10-01T19:38:30.737Z,83.88
2022-10-01T19:40:38.223Z,84.03
2022-10-01T19:42:45.948Z,83.82
2022-10-01T19:44:56.432Z,84.11
2022-10-01T19:47:08.273Z,83.73
2022-10-01T19:49:19.165Z,83.64
2022-10-01T19:51:28.400Z,83.53
2022-10-01T19:53:34.663Z,83.41
2022-10-01T19:55:38.940Z,83.68
2022-10-01T19:57:43.633Z,83.64
2022-10-01T19:59:47.695Z,83.59
2022-10-01T20:01:57.376Z,83.57
2022-10-01T20:04:03.841Z,83.39
2022-10-01T20:06:10.858Z,84.08
2022-10-01T20:08:27.535Z,83.57
2022-10-01T20:10:38.214Z,83.85
2022-10-01T20:12:49.389Z,83.55
2022-10-01T20:15:08.328Z,83.30
2022-10-01T20:17:20.079Z,83.52
2022-10-01T20:19:30.468Z,83.53
2022-10-01T20:21:45.945Z,83.54
2022-10-01T20:23:56.683Z,83.13
2022-10-01T20:26:05.768Z,83.05
2022-10-01T20:28:20.040Z,83.42
2022-10-01T20:30:23.781Z,82.94
2022-10-01T20:32:33.034Z,82.75
2022-10-01T20:34:46.400Z,82.69
2022-10-01T20:36:57.098Z,82.50
2022-10-01T20:39:05.764Z,81.94
2022-10-01T20:41:15.457Z,82.00
2022-10-01T20:43:22.989Z,82.43
2022-10-01T20:45:28.516Z,81.98
2022-10-01T20:47:40.219Z,82.28
2022-10-01T20:49:48.780Z,82.08
2022-10-01T20:52:01.943Z,82.12
2022-10-01T20:54:10.422Z,82.15
2022-10-01T20:56:17.314Z,81.75
2022-10-01T20:58:25.216Z,82.75
2022-10-01T21:00:29.380Z,82.22
2022-10-01T21:02:40.830Z,82.02
2022-10-01T21:04:50.285Z,82.04
2022-10-01T21:06:57.469Z,82.25
2022-10-01T21:09:04.576Z,81.52
2022-10-01T21:11:15.100Z,82.16
2022-10-01T21:13:25.519Z,81.96
2022-10-01T21:15:42.518Z,81.59
2022-10-01T21:17:53.430Z,81.92
2022-10-01T21:20:12.380Z,82.30
2022-10-01T21:22:29.044Z,81.79
2022-10-01T21:24:49.587Z,81.77
2022-10-01T21:27:04.731Z,82.11
2022-10-01T21:29:17.072Z,81.65
2022-10-01T21:31:34.488Z,81.58
2022-10-01T21:33:45.587Z,81.85
2022-10-01T21:35:54.908Z,81.45
2022-10-01T21:38:11.036Z,81.80
2022-10-01T21:40:27.304Z,81.22
2022-10-01T21:42:39.634Z,81.13
2022-10-01T21:45:08.658Z,81.75
2022-10-01T21:47:20.544Z,81.15
2022-10-01T21:49:34.673Z,81.54
2022-10-01T21:51:53.786Z,81.79
2022-10-01T21:54:32.486Z,81.69
2022-10-01T21:56:49.949Z,82.21
2022-10-01T21:59:06.278Z,82.10
2022-10-01T22:01:18.610Z,82.08
2022-10-01T22:03:27.162Z,82.00
2022-10-01T22:05:37.879Z,82.62
2022-10-01T22:07:51.817Z,82.55
2022-10-01T22:10:08.981Z,82.52
2022-10-01T22:12:13.148Z,83.08
2022-10-01T22:14:19.435Z,82.63
2022-10-01T22:16:25.947Z,82.64
2022-10-01T22:18:36.442Z,82.77
2022-10-01T22:20:42.022Z,82.42
2022-10-01T22:22:46.692Z,82.05
2022-10-01T22:24:50.052Z,82.65
2022-10-01T22:26:58.681Z,82.43
2022-10-01T22:29:04.708Z,82.82
2022-10-01T22:31:15.460Z,82.10
2022-10-01T22:33:22.048Z,81.75
2022-10-01T22:35:30.056Z,82.01
2022-10-01T22:37:38.469Z,82.17
2022-10-01T22:39:47.000Z,82.13
2022-10-01T22:41:53.735Z,81.80
2022-10-01T22:43:56.597Z,82.09
2022-10-01T22:46:24.644Z,82.59
2022-10-01T22:48:42.999Z,82.37
2022-10-01T22:50:54.734Z,82.99
2022-10-01T22:53:20.260Z,82.96
2022-10-01T22:55:31.580Z,83.07
2022-10-01T22:57:53.698Z,83.13
2022-10-01T23:00:03.828Z,83.06
2022-10-01T23:02:18.228Z,82.88
2022-10-01T23:04:36.345Z,82.67
2022-10-01T23:06:45.048Z,82.58
2022-10-01T23:08:55.319Z,83.08
2022-10-01T23:11:06.483Z,82.93
2022-10-01T23:13:20.190Z,83.15
2022-10-01T23:15:33.723Z,82.55
2022-10-01T23:17:45.012Z,82.81
2022-10-01T23:19:58.952Z,83.19
2022-10-01T23:22:10.022Z,82.83
2022-10-01T23:24:24.965Z,83.60
2022-10-01T23:26:37.066Z,83.80
2022-10-01T23:28:54.572Z,83.61
2022-10-01T23:31:04.581Z,83.65
2022-10-01T23:33:24.831Z,83.53
2022-10-01T23:35:39.404Z,83.68
2022-10-01T23:38:09.206Z,83.90
2022-10-01T23:40:16.417Z,83.37
2022-10-01T23:42:32.303Z,83.24
2022-10-01T23:44:40.968Z,83.63
2022-10-01T23:46:46.324Z,83.77
2022-10-01T23:48:54.166Z,83.83
2022-10-01T23:51:03.440Z,83.64
2022-10-01T23:53:14.096Z,83.50
2022-10-01T23:55:38.569Z,84.01
2022-10-01T23:57:42.144Z,84.24
2022-10-01T23:59:49.590Z,83.70
